createdAt,value
2019-03-25T00:02:50.199Z,63.20
2019-03-25T00:06:54.983Z,62.93
2019-03-25T00:10:59.989Z,62.96
2019-03-25T00:15:04.862Z,63.23
2019-03-25T00:19:09.583Z,62.91
2019-03-25T00:23:14.370Z,63.13
2019-03-25T00:27:19.242Z,62.93
2019-03-25T00:31:23.966Z,63.13
2019-03-25T00:35:28.726Z,62.87
2019-03-25T00:39:33.495Z,62.86
2019-03-25T00:43:38.270Z,62.87
2019-03-25T00:47:43.041Z,62.87
2019-03-25T00:51:47.903Z,62.74
2019-03-25T00:55:52.776Z,63.08
2019-03-25T00:59:57.555Z,63.11
2019-03-25T01:04:02.541Z,62.81
2019-03-25T01:08:07.277Z,62.82
2019-03-25T01:12:12.501Z,62.96
2019-03-25T01:16:17.271Z,63.21
2019-03-25T01:20:22.113Z,63.88
2019-03-25T01:24:26.998Z,64.04
2019-03-25T01:28:31.768Z,63.59
2019-03-25T01:32:36.554Z,63.74
2019-03-25T01:36:41.312Z,63.64
2019-03-25T01:40:46.186Z,63.56
2019-03-25T01:44:51.114Z,63.57
2019-03-25T01:48:56.090Z,63.75
2019-03-25T01:53:00.827Z,63.83
2019-03-25T01:57:05.772Z,63.60
2019-03-25T02:01:10.734Z,63.69
2019-03-25T02:05:15.622Z,63.53
2019-03-25T02:09:20.450Z,63.59
2019-03-25T02:13:25.338Z,63.61
2019-03-25T02:17:30.192Z,63.58
2019-03-25T02:21:34.984Z,63.63
2019-03-25T02:25:39.761Z,63.53
2019-03-25T02:29:44.586Z,63.63
2019-03-25T02:33:49.472Z,63.63
2019-03-25T02:37:54.553Z,63.93
2019-03-25T02:41:59.366Z,63.72
2019-03-25T02:46:04.208Z,64.01
2019-03-25T02:50:09.118Z,64.01
2019-03-25T02:54:14.017Z,63.80
2019-03-25T02:58:18.802Z,63.78
2019-03-25T03:02:23.653Z,63.86
2019-03-25T03:06:28.414Z,64.15
2019-03-25T03:10:33.596Z,63.99
2019-03-25T03:14:38.356Z,63.99
2019-03-25T03:18:43.200Z,64.69
2019-03-25T03:22:47.990Z,64.21
2019-03-25T03:26:52.798Z,64.45
2019-03-25T03:30:57.584Z,64.55
2019-03-25T03:35:03.164Z,65.23
2019-03-25T03:39:08.479Z,65.10
2019-03-25T03:43:13.256Z,65.08
2019-03-25T03:47:18.245Z,65.58
2019-03-25T03:51:23.032Z,65.28
2019-03-25T03:55:29.874Z,65.12
2019-03-25T03:59:34.970Z,64.99
2019-03-25T04:03:39.874Z,65.02
2019-03-25T04:07:44.655Z,64.87
2019-03-25T04:11:49.466Z,64.88
2019-03-25T04:15:54.578Z,65.09
2019-03-25T04:19:59.527Z,65.09
2019-03-25T04:24:04.320Z,65.02
2019-03-25T04:28:10.074Z,65.40
2019-03-25T04:32:14.854Z,65.64
2019-03-25T04:36:19.838Z,65.15
2019-03-25T04:40:24.614Z,65.10
2019-03-25T04:44:29.390Z,64.99
2019-03-25T04:48:34.223Z,65.06
2019-03-25T04:52:39.082Z,65.26
2019-03-25T04:56:44.262Z,65.36
2019-03-25T05:00:49.067Z,65.70
2019-03-25T05:04:53.766Z,65.32
2019-03-25T05:08:58.652Z,65.76
2019-03-25T05:13:03.428Z,65.76
2019-03-25T05:17:08.223Z,65.92
2019-03-25T05:21:13.297Z,65.96
2019-03-25T05:25:18.234Z,66.09
2019-03-25T05:29:23.000Z,66.41
2019-03-25T05:33:27.917Z,67.08
2019-03-25T05:37:32.732Z,66.33
2019-03-25T05:41:37.499Z,67.39
2019-03-25T05:45:42.418Z,67.99
2019-03-25T05:49:47.166Z,67.91
2019-03-25T05:53:52.081Z,68.31
2019-03-25T05:57:56.895Z,68.81
2019-03-25T06:02:01.715Z,68.70
2019-03-25T06:06:06.705Z,69.01
2019-03-25T06:10:11.698Z,69.53
2019-03-25T06:14:16.451Z,68.81
2019-03-25T06:18:21.266Z,69.92
2019-03-25T06:22:26.065Z,69.90
2019-03-25T06:26:31.074Z,69.69
2019-03-25T06:30:35.856Z,70.07
2019-03-25T06:34:40.755Z,69.87
2019-03-25T06:38:45.696Z,69.73
2019-03-25T06:42:50.594Z,70.37
2019-03-25T06:46:55.437Z,69.43
2019-03-25T06:51:00.746Z,69.58
2019-03-25T06:55:05.638Z,69.60
2019-03-25T06:59:10.640Z,68.96
2019-03-25T07:03:15.725Z,69.16
2019-03-25T07:07:22.741Z,69.35
2019-03-25T07:11:27.958Z,69.14
2019-03-25T07:15:33.681Z,68.70
2019-03-25T07:19:39.082Z,68.71
2019-03-25T07:23:44.251Z,68.53
2019-03-25T07:27:49.814Z,68.54
2019-03-25T07:31:55.676Z,69.00
2019-03-25T07:36:01.828Z,68.75
2019-03-25T07:40:09.419Z,68.93
2019-03-25T07:44:14.944Z,68.87
2019-03-25T07:48:20.193Z,68.86
2019-03-25T07:52:26.019Z,68.89
2019-03-25T07:56:31.652Z,69.03
2019-03-25T08:00:40.151Z,68.65
2019-03-25T08:04:45.825Z,68.46
2019-03-25T08:08:50.897Z,68.09
2019-03-25T08:12:56.760Z,67.87
2019-03-25T08:17:02.082Z,67.74
2019-03-25T08:21:34.432Z,67.79
2019-03-25T08:25:39.958Z,67.50
2019-03-25T08:29:45.270Z,67.22
2019-03-25T08:33:50.397Z,66.24
2019-03-25T08:37:55.856Z,66.12
2019-03-25T08:42:01.558Z,65.69
2019-03-25T08:46:07.238Z,65.89
2019-03-25T08:50:13.339Z,65.53
2019-03-25T08:54:19.417Z,64.95
2019-03-25T08:58:24.914Z,65.02
2019-03-25T09:02:30.299Z,64.59
2019-03-25T09:06:35.557Z,64.17
2019-03-25T09:10:40.925Z,64.10
2019-03-25T09:14:46.495Z,64.18
2019-03-25T09:19:07.552Z,63.65
2019-03-25T09:23:12.851Z,63.53
2019-03-25T09:27:21.673Z,63.22
2019-03-25T09:31:36.949Z,63.56
2019-03-25T09:35:40.327Z,63.50
2019-03-25T09:39:46.241Z,63.79
2019-03-25T09:43:51.607Z,63.99
2019-03-25T09:47:56.579Z,64.19
2019-03-25T09:52:02.290Z,64.31
2019-03-25T09:56:08.171Z,64.33
2019-03-25T10:00:14.198Z,64.60
2019-03-25T10:04:20.219Z,64.59
2019-03-25T10:08:28.468Z,64.39
2019-03-25T10:13:07.929Z,64.51
2019-03-25T10:17:12.928Z,64.76
2019-03-25T10:21:19.596Z,64.66
2019-03-25T10:25:25.005Z,63.97
2019-03-25T10:29:30.295Z,63.97
2019-03-25T10:33:35.811Z,64.54
2019-03-25T10:37:41.524Z,63.72
2019-03-25T10:41:47.734Z,63.27
2019-03-25T10:45:53.305Z,62.58
2019-03-25T10:49:59.493Z,62.58
2019-03-25T10:54:08.230Z,62.43
2019-03-25T10:58:13.244Z,62.67
2019-03-25T11:02:18.464Z,60.82
2019-03-25T11:06:23.269Z,59.51
2019-03-25T11:10:28.021Z,57.42
2019-03-25T11:14:32.948Z,58.75
2019-03-25T11:18:37.966Z,58.50
2019-03-25T11:22:42.969Z,56.91
2019-03-25T11:26:52.977Z,56.23
2019-03-25T11:30:59.770Z,54.77
2019-03-25T11:35:05.693Z,54.79
2019-03-25T11:39:15.481Z,52.07
2019-03-25T11:43:21.013Z,49.89
2019-03-25T11:47:26.171Z,50.18
2019-03-25T11:51:31.001Z,55.44
2019-03-25T11:55:36.120Z,55.44
2019-03-25T11:59:41.363Z,57.60
2019-03-25T12:03:46.412Z,58.80
2019-03-25T12:07:52.386Z,59.24
2019-03-25T12:11:57.789Z,59.90
2019-03-25T12:16:03.051Z,59.24
2019-03-25T12:20:08.657Z,59.59
2019-03-25T12:24:13.932Z,59.84
2019-03-25T12:28:20.703Z,59.43
2019-03-25T12:32:25.977Z,59.13
2019-03-25T12:36:31.967Z,58.69
2019-03-25T12:40:36.903Z,58.58
2019-03-25T12:44:41.677Z,55.12
2019-03-25T12:48:47.658Z,55.12
2019-03-25T12:52:53.602Z,49.95
2019-03-25T12:56:59.269Z,49.95
2019-03-25T13:01:06.064Z,47.32
2019-03-25T13:05:11.460Z,45.16
2019-03-25T13:09:17.047Z,44.02
2019-03-25T13:13:22.962Z,40.91
2019-03-25T13:17:27.743Z,41.90
2019-03-25T13:21:32.648Z,39.93
2019-03-25T13:25:39.523Z,39.06
2019-03-25T13:29:52.450Z,39.26
2019-03-25T13:33:53.458Z,39.26
2019-03-25T13:37:59.470Z,41.02
2019-03-25T13:42:05.003Z,40.94
2019-03-25T13:46:09.910Z,40.94
2019-03-25T13:50:15.000Z,40.26
2019-03-25T13:54:19.752Z,41.61
2019-03-25T13:58:27.570Z,40.04
2019-03-25T14:02:32.319Z,41.13
2019-03-25T14:06:38.060Z,41.36
2019-03-25T14:10:43.370Z,41.36
2019-03-25T14:14:48.342Z,39.95
2019-03-25T14:18:53.359Z,40.36
2019-03-25T14:22:59.099Z,41.28
2019-03-25T14:27:04.326Z,39.45
2019-03-25T14:31:09.365Z,40.58
2019-03-25T14:35:14.520Z,38.92
2019-03-25T14:39:21.002Z,39.69
2019-03-25T14:43:25.854Z,40.21
2019-03-25T14:47:32.870Z,39.97
2019-03-25T14:51:43.094Z,39.97
2019-03-25T14:55:47.953Z,41.29
2019-03-25T14:59:53.027Z,43.10
2019-03-25T15:03:57.880Z,43.10
2019-03-25T15:08:03.109Z,44.42
2019-03-25T15:12:09.851Z,44.71
2019-03-25T15:16:14.852Z,45.24
2019-03-25T15:20:19.702Z,46.06
2019-03-25T15:24:25.083Z,45.90
2019-03-25T15:28:30.245Z,46.55
2019-03-25T15:32:34.954Z,46.77
2019-03-25T15:36:40.454Z,47.60
2019-03-25T15:40:48.082Z,46.40
2019-03-25T15:44:54.022Z,46.04
2019-03-25T15:49:01.642Z,45.42
2019-03-25T15:53:06.546Z,44.39
2019-03-25T15:57:13.142Z,43.83
2019-03-25T16:01:18.010Z,44.81
2019-03-25T16:05:22.830Z,43.70
2019-03-25T16:09:28.596Z,44.30
2019-03-25T16:13:33.561Z,44.35
2019-03-25T16:17:38.352Z,44.98
2019-03-25T16:21:46.069Z,45.00
2019-03-25T16:25:53.435Z,43.93
2019-03-25T16:29:58.206Z,43.61
2019-03-25T16:34:07.228Z,43.90
2019-03-25T16:38:12.222Z,43.44
2019-03-25T16:42:16.970Z,43.92
2019-03-25T16:46:22.534Z,43.18
2019-03-25T16:50:27.315Z,44.43
2019-03-25T16:54:32.505Z,44.08
2019-03-25T16:58:38.200Z,44.32
2019-03-25T17:02:46.519Z,44.67
2019-03-25T17:06:53.041Z,44.21
2019-03-25T17:11:00.607Z,45.31
2019-03-25T17:15:05.709Z,45.06
2019-03-25T17:19:12.097Z,45.61
2019-03-25T17:23:17.205Z,46.51
2019-03-25T17:27:21.944Z,46.35
2019-03-25T17:31:26.880Z,46.79
2019-03-25T17:35:33.009Z,46.92
2019-03-25T17:39:40.048Z,47.16
2019-03-25T17:43:44.997Z,47.38
2019-03-25T17:47:51.258Z,47.63
2019-03-25T17:51:56.239Z,48.25
2019-03-25T17:56:05.363Z,48.24
2019-03-25T18:00:11.786Z,48.20
2019-03-25T18:04:16.716Z,48.67
2019-03-25T18:08:23.583Z,48.64
2019-03-25T18:12:38.462Z,49.07
2019-03-25T18:16:35.844Z,49.85
2019-03-25T18:20:40.605Z,49.41
2019-03-25T18:24:46.308Z,49.55
2019-03-25T18:28:53.006Z,49.78
2019-03-25T18:32:58.031Z,50.17
2019-03-25T18:37:03.245Z,50.44
2019-03-25T18:41:08.219Z,50.97
2019-03-25T18:45:14.162Z,51.08
2019-03-25T18:49:19.192Z,51.01
2019-03-25T18:53:24.166Z,51.17
2019-03-25T18:57:30.990Z,51.13
2019-03-25T19:01:37.285Z,51.40
2019-03-25T19:05:45.145Z,51.41
2019-03-25T19:09:51.550Z,51.48
2019-03-25T19:13:57.546Z,51.52
2019-03-25T19:18:02.596Z,51.70
2019-03-25T19:22:07.980Z,51.84
2019-03-25T19:26:13.469Z,51.84
2019-03-25T19:30:18.823Z,51.86
2019-03-25T19:34:23.549Z,51.90
2019-03-25T19:38:29.187Z,52.02
2019-03-25T19:42:35.731Z,52.15
2019-03-25T19:46:42.660Z,52.07
2019-03-25T19:50:50.700Z,52.12
2019-03-25T19:54:57.442Z,52.07
2019-03-25T19:59:02.142Z,52.39
2019-03-25T20:03:08.163Z,51.96
2019-03-25T20:07:13.026Z,51.88
2019-03-25T20:11:17.785Z,52.04
2019-03-25T20:15:22.673Z,51.72
2019-03-25T20:19:27.464Z,51.90
2019-03-25T20:23:32.449Z,51.89
2019-03-25T20:27:37.300Z,52.05
2019-03-25T20:31:42.364Z,52.32
2019-03-25T20:35:47.060Z,52.65
2019-03-25T20:39:51.851Z,52.92
2019-03-25T20:43:56.976Z,53.07
2019-03-25T20:48:01.799Z,53.38
2019-03-25T20:52:06.489Z,53.84
2019-03-25T20:56:11.292Z,53.92
2019-03-25T21:00:18.364Z,54.12
2019-03-25T21:04:23.210Z,54.15
2019-03-25T21:08:28.187Z,54.53
2019-03-25T21:12:32.907Z,54.42
2019-03-25T21:16:37.781Z,54.50
2019-03-25T21:20:42.746Z,54.52
2019-03-25T21:24:47.490Z,54.53
2019-03-25T21:28:52.506Z,54.41
2019-03-25T21:32:58.721Z,54.35
2019-03-25T21:37:05.672Z,54.29
2019-03-25T21:41:10.267Z,53.47
2019-03-25T21:45:15.280Z,53.41
2019-03-25T21:49:19.985Z,53.14
2019-03-25T21:53:24.972Z,53.17
2019-03-25T21:57:30.022Z,52.87
2019-03-25T22:01:34.805Z,53.02
2019-03-25T22:05:40.691Z,52.75
2019-03-25T22:09:45.705Z,52.62
2019-03-25T22:13:50.429Z,52.66
2019-03-25T22:17:55.185Z,53.00
2019-03-25T22:22:01.059Z,53.13
2019-03-25T22:26:05.802Z,53.33
2019-03-25T22:30:12.338Z,53.41
2019-03-25T22:34:17.093Z,53.64
2019-03-25T22:38:21.841Z,53.93
2019-03-25T22:42:26.719Z,53.87
2019-03-25T22:46:31.468Z,54.00
2019-03-25T22:50:36.228Z,54.44
2019-03-25T22:54:40.953Z,54.60
2019-03-25T22:58:46.020Z,54.67
2019-03-25T23:02:50.791Z,54.90
2019-03-25T23:06:55.598Z,55.05
2019-03-25T23:11:00.341Z,55.38
2019-03-25T23:15:05.714Z,55.43
2019-03-25T23:19:10.499Z,55.89
2019-03-25T23:23:15.261Z,55.76
2019-03-25T23:27:20.011Z,56.14
2019-03-25T23:31:24.757Z,56.41
2019-03-25T23:35:29.462Z,56.61
2019-03-25T23:39:34.206Z,56.74
2019-03-25T23:43:39.344Z,56.88
2019-03-25T23:47:44.084Z,57.14
2019-03-25T23:51:49.067Z,57.20
2019-03-25T23:55:53.831Z,57.13
2019-03-25T23:59:58.595Z,57.46
